Pagrindinis puslapis
METAR-TAF:

METAR-TAF

Oro uostai :

Puerto Princesa, Filipinai

platuma: 09-44-32N, ilguma: 118-45-31E, Aukštis: 22 m

Dabartinis oras

Ataskaita buvo paskelbta 2 valandos ir 52 minutes, ne 18:00 UTC
Vėjas 2 kt iš Vakarų
Temperatūra 26°C
Drėgmė 89%
Slėgis 1009 hPa
Matomumas 10 km arba daugiau
Mažai debesys ne aukštis 1900 ft
Su prošvaistėmis ne aukštis 24000 ft

METAR: RPVP 201800Z 27002KT 9999 FEW019 BKN240 26/24 Q1009 RMK A2980

Laikas: 04:52 (20:52 UTC)

Prognozė

Ataskaita buvo paskelbta 3 valandos ir 52 minutes, ne 17:00 UTC
Prognozė galioja nuo 20 metu 18 UTC su 21 metu 18 UTC
Vėjas 6 kt iš Pietų
Matomumas 10 km arba daugiau
Mažai debesys ne aukštis 1900 ft
Išsisklaidę debesys ne aukštis 8000 ft
Su prošvaistėmis ne aukštis 24000 ft
Laikinai
nuo 20 metu 18 UTC su 20 metu 24 UTC
Vėjas 4 kt iš Vakarų

TAF: RPVP 201700Z 2018/2118 18006KT 9999 FEW019 SCT080 BKN240 TEMPO 2018/2024 27004KT

Orai ataskaitas ir orų prognozės (METAR, TAF).

turimą stotys yra geltonos ir raudonos taškus žemėlapyje.

Perkelti pele per norėdami pamatyti stoties vardą.

Tada spustelėkite, norėdami matyti oro stebėjimo ir prognozės.

Norėdami pakeisti žemėlapį: spustelėkite ant žalios mygtukų su juodo kryžiaus žemyn,; žalią mygtuką su brūkšneliu, jei norite nutolinti; arba žalių rodyklių gretimoms žemėlapius.


METAR-TAF: